Time;durP1;ratioP1;P1;durP2;ratioP2;P2;SDS_P1;SDS_P2;PMS_P1;PMS_P2;Temp;Humidity;BMP_temperature;BMP_pressure;BME280_temperature;BME280_humidity;BME280_pressure;Samples;Min_cycle;Max_cycle;Signal;HPM_P1;HPM_P2
2023/11/25 00:06:33;;;;;;;2.30;1.50;;;;;;;0.16;79.46;96649.91;102547;1292;600123;-27
2023/11/25 00:09:01;;;;;;;5.00;1.50;;;;;;;-0.13;79.91;96654.95;104902;1269;61157;-27
2023/11/25 00:11:29;;;;;;;3.50;1.70;;;;;;;-0.35;80.37;96657.98;104827;1266;61136;-27
2023/11/25 00:13:56;;;;;;;3.70;1.90;;;;;;;-0.57;80.85;96656.70;104832;1272;72183;-27
2023/11/25 00:16:24;;;;;;;2.30;1.30;;;;;;;-0.78;81.88;96652.64;104812;1272;74321;-28
2023/11/25 00:18:52;;;;;;;5.30;1.90;;;;;;;-0.37;81.94;96648.25;104812;1272;72649;-27
2023/11/25 00:21:20;;;;;;;1.60;1.20;;;;;;;0.16;79.94;96648.34;102268;1263;3537620;-27
2023/11/25 00:23:48;;;;;;;3.90;2.10;;;;;;;0.21;79.05;96653.42;105065;1264;61137;-27
2023/11/25 00:33:53;;;;;;;3.00;1.50;;;;;;;-0.68;82.77;96675.77;103086;1289;599582;-27
2023/11/25 00:44:00;;;;;;;3.40;2.10;;;;;;;0.06;80.28;96691.76;102644;1295;600218;-27
2023/11/25 00:46:28;;;;;;;4.30;1.60;;;;;;;-0.19;80.70;96699.77;105051;1266;61072;-27
2023/11/25 00:56:38;;;;;;;2.80;1.50;;;;;;;-0.02;81.62;96723.25;102668;1292;599933;-25
2023/11/25 01:06:49;;;;;;;4.20;2.10;;;;;;;-0.22;80.88;96730.17;102590;1296;599855;-25
2023/11/25 01:09:19;;;;;;;3.10;1.60;;;;;;;-0.43;81.33;96737.03;105241;1263;61172;-27
2023/11/25 01:11:47;;;;;;;5.80;2.20;;;;;;;-0.66;82.06;96733.23;105156;1264;61004;-27
2023/11/25 01:14:14;;;;;;;3.30;2.20;;;;;;;-0.56;82.66;96731.98;105129;1264;72202;-27
2023/11/25 01:16:42;;;;;;;3.90;1.90;;;;;;;0.03;81.07;96738.71;105106;1269;74572;-27
2023/11/25 01:19:10;;;;;;;5.10;1.80;;;;;;;0.24;80.02;96742.09;105171;1264;70576;-27
2023/11/25 01:21:38;;;;;;;6.30;2.40;;;;;;;0.08;80.05;96732.92;102684;1273;61278;-28
2023/11/25 01:31:48;;;;;;;5.70;1.80;;;;;;;-0.19;82.60;96737.67;102660;1291;600246;-25
2023/11/25 01:34:16;;;;;;;5.70;2.50;;;;;;;0.28;80.47;96735.18;104786;1266;61174;-27
2023/11/25 01:36:44;;;;;;;3.20;1.60;;;;;;;0.28;79.67;96739.91;104831;1264;61024;-27
2023/11/25 01:39:13;;;;;;;3.00;1.80;;;;;;;0.04;80.18;96735.07;104885;1270;72285;-27
2023/11/25 01:41:43;;;;;;;4.90;1.80;;;;;;;-0.27;81.00;96738.04;105199;1263;73492;-28
2023/11/25 01:44:12;;;;;;;5.70;1.90;;;;;;;-0.54;82.05;96740.21;104879;1261;71547;-27
2023/11/25 01:46:42;;;;;;;2.50;1.80;;;;;;;-0.74;82.69;96741.81;102634;1259;62150;-27
2023/11/25 01:49:14;;;;;;;2.70;1.00;;;;;;;-0.70;83.13;96744.06;105230;1260;72159;-27
2023/11/25 01:51:45;;;;;;;3.10;1.20;;;;;;;-0.10;81.69;96744.98;105199;1266;74292;-27
2023/11/25 01:54:16;;;;;;;6.40;2.80;;;;;;;0.10;80.09;96746.90;105093;1260;71248;-28
2023/11/25 02:04:24;;;;;;;2.70;1.80;;;;;;;-0.81;82.42;96762.23;102630;1294;600201;-25
2023/11/25 02:06:52;;;;;;;3.30;1.60;;;;;;;-1.05;83.09;96767.48;104935;1266;61060;-26
2023/11/25 02:09:24;;;;;;;4.50;1.80;;;;;;;-0.60;82.48;96767.73;104819;1267;61161;-26
2023/11/25 02:11:59;;;;;;;3.30;1.80;;;;;;;-0.03;80.84;96778.08;104828;1270;71088;-26
2023/11/25 02:14:27;;;;;;;2.00;1.60;;;;;;;-0.00;80.04;96785.69;104658;1267;74396;-26
2023/11/25 02:24:26;;;;;;;4.80;1.70;;;;;;;-0.90;84.05;96797.30;103007;1291;599912;-25
2023/11/25 02:27:03;;;;;;;2.60;1.60;;;;;;;-0.68;83.89;96796.23;104627;1271;61168;-26
2023/11/25 02:29:32;;;;;;;2.00;1.30;;;;;;;-0.32;82.09;96793.32;104647;1272;61193;-27
2023/11/25 02:32:00;;;;;;;1.40;1.20;;;;;;;-0.32;81.41;96792.83;104787;1267;72218;-27
2023/11/25 02:34:29;;;;;;;1.30;0.90;;;;;;;-0.59;81.86;96794.55;104856;1266;74320;-27
2023/11/25 02:47:21;;;;;;;4.40;1.90;;;;;;;-0.33;82.21;96789.48;102645;1292;600677;-26
2023/11/25 02:49:50;;;;;;;3.80;1.90;;;;;;;-0.31;80.90;96787.45;104794;1271;61218;-26
2023/11/25 02:59:59;;;;;;;3.00;1.70;;;;;;;-1.21;82.26;96802.51;102548;1297;600022;-27
2023/11/25 03:02:27;;;;;;;2.90;1.70;;;;;;;-1.47;83.16;96806.98;104818;1272;61192;-27
2023/11/25 03:04:55;;;;;;;2.40;1.60;;;;;;;-1.07;83.02;96810.17;104793;1269;61126;-27
2023/11/25 03:15:22;;;;;;;1.70;1.40;;;;;;;-1.07;83.96;96833.36;102525;1291;615285;-25
2023/11/25 03:17:50;;;;;;;2.30;1.20;;;;;;;-1.40;85.68;96838.48;104885;1267;61145;-25
2023/11/25 03:20:17;;;;;;;2.80;2.00;;;;;;;-1.53;86.00;96842.95;104901;1269;61129;-25
2023/11/25 03:22:44;;;;;;;2.90;1.80;;;;;;;-1.27;85.43;96844.97;104875;1264;72196;-25
2023/11/25 03:25:14;;;;;;;2.30;1.80;;;;;;;-0.49;82.64;96848.79;104876;1269;74389;-25
2023/11/25 03:27:41;;;;;;;3.60;1.60;;;;;;;-0.24;80.98;96847.69;102218;1267;3639114;-25
2023/11/25 03:30:11;;;;;;;4.70;2.00;;;;;;;-0.32;80.97;96846.69;105126;1269;61189;-28
2023/11/25 03:32:38;;;;;;;3.00;1.60;;;;;;;-0.54;81.48;96841.63;105161;1269;61157;-28
2023/11/25 03:35:06;;;;;;;4.40;2.00;;;;;;;-0.74;82.09;96837.36;105154;1268;72103;-25
2023/11/25 03:37:33;;;;;;;6.40;2.40;;;;;;;-0.88;82.60;96827.64;105176;1269;72921;-25
2023/11/25 03:40:00;;;;;;;3.80;1.80;;;;;;;-1.03;83.11;96826.81;105144;1263;72679;-25
2023/11/25 03:42:27;;;;;;;10.70;2.00;;;;;;;-1.04;83.81;96822.80;105218;1264;61156;-25
2023/11/25 03:44:54;;;;;;;4.20;1.90;;;;;;;-0.38;82.32;96821.88;105232;1264;61183;-25
2023/11/25 03:47:21;;;;;;;3.40;1.80;;;;;;;0.01;80.36;96821.13;105214;1264;73075;-25
2023/11/25 03:49:48;;;;;;;4.90;2.40;;;;;;;0.00;79.68;96822.54;104923;1264;74608;-25
2023/11/25 03:52:15;;;;;;;3.50;2.10;;;;;;;-0.22;80.12;96825.86;105173;1264;72537;-25
2023/11/25 03:54:43;;;;;;;3.50;2.00;;;;;;;-0.47;80.44;96823.23;105262;1265;61235;-26
2023/11/25 03:57:10;;;;;;;3.40;1.70;;;;;;;-0.74;80.85;96829.20;105217;1267;61064;-26
2023/11/25 03:59:37;;;;;;;5.40;2.20;;;;;;;-0.98;81.58;96827.83;105882;1251;73023;-26
2023/11/25 04:02:04;;;;;;;4.00;1.90;;;;;;;-1.19;82.12;96828.08;105878;1251;74269;-26
2023/11/25 04:04:31;;;;;;;3.20;1.70;;;;;;;-0.79;82.10;96831.07;105921;1253;73118;-27
2023/11/25 04:06:59;;;;;;;3.90;2.00;;;;;;;-0.25;79.99;96827.13;105960;1252;61092;-26
2023/11/25 04:09:26;;;;;;;3.00;2.00;;;;;;;-0.23;79.26;96824.71;105929;1256;61150;-26
2023/11/25 04:11:53;;;;;;;5.30;2.20;;;;;;;-0.44;79.44;96826.09;105983;1251;73010;-26
2023/11/25 04:14:20;;;;;;;5.70;2.10;;;;;;;-0.71;80.18;96836.31;105885;1251;74409;-26
2023/11/25 04:16:47;;;;;;;3.90;2.20;;;;;;;-0.95;80.92;96845.67;105965;1251;72612;-26
2023/11/25 04:19:14;;;;;;;4.50;1.90;;;;;;;-1.20;81.38;96854.17;105843;1254;61093;-26
2023/11/25 04:21:45;;;;;;;4.90;2.60;;;;;;;-1.44;82.34;96856.13;106003;1257;61119;-26
2023/11/25 04:24:12;;;;;;;6.90;2.10;;;;;;;-1.33;82.96;96852.70;106022;1251;72927;-26
2023/11/25 04:26:40;;;;;;;2.70;1.60;;;;;;;-0.54;81.62;96849.80;105970;1251;74385;-26
2023/11/25 04:29:08;;;;;;;3.60;1.90;;;;;;;-0.18;79.80;96850.31;105862;1251;72652;-26
2023/11/25 04:31:39;;;;;;;2.10;1.30;;;;;;;-0.44;80.01;96850.79;105824;1251;61147;-26
2023/11/25 04:34:06;;;;;;;3.40;1.70;;;;;;;-0.77;81.29;96849.89;105753;1251;61226;-27
2023/11/25 04:36:35;;;;;;;2.90;1.70;;;;;;;-1.04;82.49;96856.99;105631;1251;73556;-26
2023/11/25 04:39:02;;;;;;;5.80;2.20;;;;;;;-1.30;83.24;96855.25;105805;1251;74350;-26
2023/11/25 04:41:29;;;;;;;7.70;2.20;;;;;;;-1.49;83.91;96868.73;105835;1251;72639;-26
2023/11/25 04:43:57;;;;;;;6.40;1.60;;;;;;;-1.32;83.91;96874.26;105742;1251;61084;-26
2023/11/25 04:46:24;;;;;;;6.20;2.50;;;;;;;-0.67;81.81;96867.24;105724;1256;61071;-26
2023/11/25 04:48:51;;;;;;;3.40;1.80;;;;;;;-0.49;80.15;96865.85;105932;1251;73024;-26
2023/11/25 04:51:23;;;;;;;5.10;2.00;;;;;;;-0.67;79.82;96865.39;105834;1251;74407;-27
2023/11/25 04:53:50;;;;;;;3.50;2.00;;;;;;;-0.97;80.20;96864.18;105549;1254;72545;-26
2023/11/25 04:56:17;;;;;;;5.40;1.90;;;;;;;-1.25;81.60;96872.27;105957;1250;61166;-27
2023/11/25 04:58:44;;;;;;;4.20;2.30;;;;;;;-1.55;82.64;96871.51;105929;1251;61196;-27
2023/11/25 05:01:13;;;;;;;5.50;2.50;;;;;;;-1.90;85.46;96882.33;105798;1251;73006;-27
2023/11/25 05:03:40;;;;;;;5.40;2.30;;;;;;;-1.80;86.65;96902.96;105616;1251;74015;-26
2023/11/25 05:06:09;;;;;;;4.70;2.40;;;;;;;-1.13;84.47;96905.48;105973;1251;73014;-27
2023/11/25 05:08:36;;;;;;;2.50;1.50;;;;;;;-0.94;83.06;96906.56;105756;1259;61170;-27
2023/11/25 05:11:04;;;;;;;3.80;1.90;;;;;;;-1.01;82.98;96914.69;105878;1251;61128;-27
2023/11/25 05:13:32;;;;;;;4.20;2.20;;;;;;;-1.41;84.26;96922.83;105845;1251;72009;-27
2023/11/25 05:15:59;;;;;;;6.60;2.30;;;;;;;-1.61;85.02;96922.30;105639;1251;74263;-27
2023/11/25 05:18:27;;;;;;;6.30;2.30;;;;;;;-1.83;86.15;96926.96;105805;1257;72440;-27
2023/11/25 05:20:54;;;;;;;6.50;2.20;;;;;;;-1.66;86.08;96934.02;105870;1251;60987;-27
2023/11/25 05:23:21;;;;;;;4.70;2.30;;;;;;;-1.18;84.05;96936.79;105839;1256;61092;-27
2023/11/25 05:25:48;;;;;;;3.20;1.80;;;;;;;-0.87;82.22;96940.00;105655;1251;73159;-27
2023/11/25 05:28:15;;;;;;;4.80;2.20;;;;;;;-1.02;81.59;96934.54;105913;1251;74252;-27
2023/11/25 05:30:42;;;;;;;4.90;2.50;;;;;;;-1.27;81.62;96930.45;105947;1251;72610;-27
2023/11/25 05:33:09;;;;;;;5.20;2.40;;;;;;;-1.59;82.24;96929.80;105998;1257;60993;-27
2023/11/25 05:35:36;;;;;;;6.20;3.30;;;;;;;-1.85;82.96;96924.55;105767;1251;61212;-27
2023/11/25 05:38:04;;;;;;;4.40;2.20;;;;;;;-2.07;83.85;96913.87;105993;1255;72897;-27
2023/11/25 05:40:31;;;;;;;3.60;1.80;;;;;;;-2.24;84.25;96918.48;105981;1256;74369;-26
2023/11/25 05:43:01;;;;;;;4.20;2.20;;;;;;;-1.80;84.17;96913.45;105916;1251;72606;-27
2023/11/25 05:45:30;;;;;;;7.30;2.40;;;;;;;-1.11;82.11;96915.73;105538;1251;61146;-27
2023/11/25 05:47:58;;;;;;;9.10;3.00;;;;;;;-0.97;80.81;96918.37;105770;1251;61179;-27
2023/11/25 05:50:25;;;;;;;3.60;2.00;;;;;;;-1.11;80.98;96926.83;105949;1251;73033;-27
2023/11/25 05:52:53;;;;;;;6.00;2.60;;;;;;;-1.33;81.48;96934.95;105569;1260;73655;-27
2023/11/25 05:55:20;;;;;;;3.30;1.90;;;;;;;-1.68;82.54;96946.57;105827;1254;72769;-26
2023/11/25 05:57:50;;;;;;;5.60;2.50;;;;;;;-2.01;84.98;96951.41;105782;1251;61062;-27
2023/11/25 06:00:17;;;;;;;7.20;2.50;;;;;;;-1.97;85.97;96957.48;105574;1257;61166;-27
2023/11/25 06:02:44;;;;;;;4.50;2.20;;;;;;;-1.37;84.55;96958.16;105755;1251;73568;-27
2023/11/25 06:05:12;;;;;;;3.90;2.50;;;;;;;-1.05;82.93;96958.63;105953;1251;74190;-27
2023/11/25 06:07:39;;;;;;;5.80;2.70;;;;;;;-1.04;82.52;96954.10;105807;1254;72620;-27
2023/11/25 06:10:09;;;;;;;5.30;3.30;;;;;;;-1.18;81.85;96951.98;105864;1251;61049;-26
2023/11/25 06:12:37;;;;;;;4.50;2.50;;;;;;;-1.38;82.06;96948.73;105583;1251;61129;-27
2023/11/25 06:15:05;;;;;;;10.80;2.70;;;;;;;-1.57;82.92;96939.74;105794;1251;73503;-27
2023/11/25 06:17:32;;;;;;;8.40;2.90;;;;;;;-1.71;83.44;96944.00;105726;1251;74307;-27
2023/11/25 06:19:59;;;;;;;6.00;3.10;;;;;;;-1.77;83.66;96945.26;105951;1251;72470;-27
2023/11/25 06:22:26;;;;;;;3.80;2.20;;;;;;;-1.83;83.91;96944.14;105935;1251;61033;-26
2023/11/25 06:24:53;;;;;;;10.00;3.40;;;;;;;-1.32;83.57;96942.52;105943;1256;61192;-28
2023/11/25 06:27:21;;;;;;;6.00;2.50;;;;;;;-0.58;81.25;96941.92;105930;1251;72764;-27
2023/11/25 06:29:49;;;;;;;4.50;2.90;;;;;;;-0.37;79.38;96940.66;105811;1251;74244;-26
2023/11/25 06:32:17;;;;;;;8.50;3.30;;;;;;;-0.44;79.24;96947.30;105764;1254;72804;-26
2023/11/25 06:34:44;;;;;;;8.60;3.50;;;;;;;-0.65;79.47;96952.96;105634;1251;61025;-26
2023/11/25 06:37:13;;;;;;;5.30;2.60;;;;;;;-0.83;80.74;96955.38;105915;1256;61121;-26
2023/11/25 06:39:40;;;;;;;6.30;3.20;;;;;;;-0.95;80.89;96961.51;105960;1251;71910;-27
2023/11/25 06:42:09;;;;;;;7.00;3.70;;;;;;;-0.99;81.55;96961.11;105976;1251;73327;-26
2023/11/25 06:44:36;;;;;;;6.20;3.00;;;;;;;-0.96;81.92;96964.50;105964;1251;72653;-26
2023/11/25 06:47:05;;;;;;;7.50;3.60;;;;;;;-0.90;82.08;96969.71;105720;1251;61148;-26
2023/11/25 06:49:32;;;;;;;6.60;3.10;;;;;;;-0.90;81.91;96968.69;106041;1251;61057;-26
2023/11/25 06:51:59;;;;;;;8.60;3.50;;;;;;;-0.91;81.79;96965.88;105977;1251;72715;-26
2023/11/25 06:54:26;;;;;;;9.90;3.10;;;;;;;-0.89;81.84;96972.50;105948;1251;74307;-27
2023/11/25 06:56:53;;;;;;;9.00;3.50;;;;;;;-0.86;81.95;96978.98;105930;1251;72595;-26
2023/11/25 06:59:20;;;;;;;4.60;2.80;;;;;;;-0.84;82.09;96985.96;105712;1251;61140;-26
2023/11/25 07:01:47;;;;;;;11.00;3.10;;;;;;;-0.16;81.19;96980.64;105812;1251;61106;-26
2023/11/25 07:04:15;;;;;;;7.10;2.90;;;;;;;0.81;78.90;96980.28;105687;1251;72996;-26
2023/11/25 07:06:42;;;;;;;5.50;2.80;;;;;;;1.23;76.21;96972.20;105948;1251;74401;-27
2023/11/25 07:09:09;;;;;;;6.00;2.90;;;;;;;1.31;74.03;96961.86;105710;1254;73828;-27
2023/11/25 07:11:37;;;;;;;6.10;2.60;;;;;;;1.34;73.41;96957.70;105660;1251;61076;-26
2023/11/25 07:14:05;;;;;;;9.30;3.00;;;;;;;1.29;72.88;96949.73;105928;1252;61163;-26
2023/11/25 07:16:35;;;;;;;6.80;3.30;;;;;;;1.05;73.51;96945.52;105688;1251;72717;-26
2023/11/25 07:19:05;;;;;;;6.90;2.90;;;;;;;0.76;74.87;96940.02;105684;1251;74353;-26
2023/11/25 07:21:32;;;;;;;9.90;3.20;;;;;;;0.71;75.61;96939.16;105919;1254;72710;-26
2023/11/25 07:23:59;;;;;;;4.80;2.60;;;;;;;0.64;76.18;96938.71;105963;1251;61167;-26
2023/11/25 07:26:28;;;;;;;6.90;3.00;;;;;;;0.58;76.81;96937.77;105660;1254;61096;-26
2023/11/25 07:28:56;;;;;;;5.70;2.80;;;;;;;0.55;76.83;96943.48;105661;1254;73716;-26
2023/11/25 07:31:24;;;;;;;5.10;2.60;;;;;;;0.61;77.33;96939.77;105902;1251;74399;-27
2023/11/25 07:33:52;;;;;;;5.20;2.80;;;;;;;0.78;77.11;96940.77;105699;1251;71279;-27
2023/11/25 07:36:19;;;;;;;4.80;2.70;;;;;;;0.90;76.14;96927.73;105800;1251;61104;-27
2023/11/25 07:38:46;;;;;;;3.30;2.50;;;;;;;0.94;75.52;96917.83;105764;1257;61135;-27
2023/11/25 07:41:16;;;;;;;6.20;2.40;;;;;;;0.95;75.18;96912.47;105690;1251;74305;-27
2023/11/25 07:43:43;;;;;;;5.20;2.40;;;;;;;1.08;74.99;96923.09;105596;1259;72951;-27
2023/11/25 07:46:11;;;;;;;5.30;2.90;;;;;;;1.13;74.83;96922.88;105801;1251;72635;-27
2023/11/25 07:48:38;;;;;;;7.00;3.70;;;;;;;1.23;74.00;96925.08;105740;1251;60932;-27
2023/11/25 07:51:05;;;;;;;8.30;3.30;;;;;;;1.27;73.67;96927.83;105703;1257;61171;-27
2023/11/25 07:53:32;;;;;;;5.70;3.40;;;;;;;1.36;74.19;96934.02;105684;1251;74300;-27
2023/11/25 07:56:00;;;;;;;5.80;2.70;;;;;;;1.33;73.81;96935.23;105778;1257;74313;-27
2023/11/25 07:58:29;;;;;;;5.80;2.80;;;;;;;1.22;74.69;96932.67;105993;1256;73088;-27
2023/11/25 08:00:56;;;;;;;6.90;3.00;;;;;;;1.10;75.26;96925.15;106006;1251;61054;-27
2023/11/25 08:03:23;;;;;;;9.60;2.90;;;;;;;0.95;75.64;96918.09;105939;1256;61165;-27
2023/11/25 08:05:50;;;;;;;5.20;2.20;;;;;;;1.05;75.46;96916.20;105857;1251;73728;-27
2023/11/25 08:08:17;;;;;;;3.60;2.00;;;;;;;1.00;75.51;96922.33;105891;1251;74359;-28
2023/11/25 08:10:44;;;;;;;4.30;2.30;;;;;;;1.00;75.36;96922.19;105922;1251;72682;-27
2023/11/25 08:13:14;;;;;;;4.70;2.50;;;;;;;1.10;75.36;96916.84;105663;1251;61024;-27
2023/11/25 08:15:41;;;;;;;5.10;2.40;;;;;;;1.29;75.24;96918.07;105560;1251;61064;-27
2023/11/25 08:18:08;;;;;;;5.00;2.60;;;;;;;1.47;73.97;96919.98;105803;1251;74191;-27
2023/11/25 08:20:36;;;;;;;7.00;2.50;;;;;;;1.53;72.93;96921.04;105849;1252;74499;-27
2023/11/25 08:23:04;;;;;;;7.30;1.90;;;;;;;1.68;73.08;96933.87;105819;1254;72678;-27
2023/11/25 08:25:31;;;;;;;4.30;2.60;;;;;;;1.76;71.86;96949.17;105906;1253;61045;-27
2023/11/25 08:27:59;;;;;;;5.30;2.70;;;;;;;1.88;72.16;96948.73;105755;1256;61192;-27
2023/11/25 08:30:26;;;;;;;4.80;2.40;;;;;;;2.07;71.70;96955.46;105700;1251;73771;-27
2023/11/25 08:32:53;;;;;;;3.30;1.70;;;;;;;2.28;70.86;96954.50;105986;1251;74319;-27
2023/11/25 08:35:20;;;;;;;4.30;2.40;;;;;;;2.52;69.63;96941.41;105906;1251;73227;-27
2023/11/25 08:37:47;;;;;;;6.30;2.50;;;;;;;2.53;69.32;96935.85;105854;1251;61060;-27
2023/11/25 08:40:21;;;;;;;3.10;1.70;;;;;;;2.24;69.60;96931.46;105971;1256;61169;-27
2023/11/25 08:42:51;;;;;;;4.60;2.30;;;;;;;2.25;69.91;96935.85;105873;1251;72292;-27
2023/11/25 08:45:19;;;;;;;3.40;1.90;;;;;;;2.38;70.15;96936.19;106039;1251;74919;-27
2023/11/25 08:47:46;;;;;;;7.20;2.90;;;;;;;2.37;70.95;96939.16;105836;1254;72325;-27
2023/11/25 08:50:16;;;;;;;5.70;2.40;;;;;;;2.62;70.12;96937.46;105736;1251;61131;-27
2023/11/25 08:52:47;;;;;;;5.30;2.40;;;;;;;2.70;68.62;96933.73;105829;1256;61141;-27
2023/11/25 08:55:17;;;;;;;5.80;2.30;;;;;;;2.31;69.22;96940.52;105748;1251;73902;-26
2023/11/25 08:57:45;;;;;;;4.40;2.80;;;;;;;2.50;69.69;96950.61;105894;1257;74503;-26
2023/11/25 09:00:19;;;;;;;5.10;2.10;;;;;;;2.65;70.35;96954.56;105614;1254;72525;-26
2023/11/25 09:02:50;;;;;;;2.50;2.00;;;;;;;2.79;68.71;96954.96;105560;1259;61154;-26
2023/11/25 09:05:21;;;;;;;4.30;2.30;;;;;;;2.86;68.30;96962.27;105810;1259;61115;-25
2023/11/25 09:07:50;;;;;;;4.00;2.70;;;;;;;3.06;67.94;96970.88;105661;1252;71442;-26
2023/11/25 09:10:17;;;;;;;9.60;2.70;;;;;;;3.31;67.26;96972.27;105789;1251;73373;-26
2023/11/25 09:12:45;;;;;;;3.00;2.00;;;;;;;3.47;66.49;96976.26;105886;1254;72643;-26
2023/11/25 09:15:13;;;;;;;4.00;2.30;;;;;;;3.48;65.83;96983.01;105951;1251;61052;-26
2023/11/25 09:17:41;;;;;;;6.10;2.80;;;;;;;3.50;65.25;96993.00;105719;1257;61062;-26
2023/11/25 09:20:12;;;;;;;5.30;2.60;;;;;;;3.32;65.33;96996.90;105912;1251;72499;-26
2023/11/25 09:22:41;;;;;;;7.10;2.00;;;;;;;3.35;65.58;97000.17;105711;1251;74260;-25
2023/11/25 09:25:12;;;;;;;5.60;2.00;;;;;;;3.52;64.69;97001.16;105923;1256;72729;-25
2023/11/25 09:27:40;;;;;;;8.00;2.50;;;;;;;3.60;64.28;97007.06;105904;1254;60981;-26
2023/11/25 09:30:11;;;;;;;7.10;3.00;;;;;;;3.68;64.38;97009.11;105795;1251;61315;-25
2023/11/25 09:32:39;;;;;;;6.40;2.90;;;;;;;3.85;63.29;97016.06;105724;1259;72497;-26
2023/11/25 09:35:07;;;;;;;6.30;2.30;;;;;;;3.93;62.54;97022.42;105600;1257;73121;-26
2023/11/25 09:37:35;;;;;;;7.10;2.10;;;;;;;4.05;62.54;97024.83;105738;1259;72582;-26
2023/11/25 09:40:04;;;;;;;6.20;2.20;;;;;;;4.19;62.75;97033.43;105788;1254;61255;-27
2023/11/25 09:42:32;;;;;;;5.50;2.20;;;;;;;4.11;63.38;97028.98;105675;1259;61175;-26
2023/11/25 09:44:59;;;;;;;5.90;2.30;;;;;;;3.66;62.94;97026.06;105873;1251;74273;-27
2023/11/25 09:47:27;;;;;;;6.10;2.10;;;;;;;3.60;62.20;97022.68;105886;1259;74238;-26
2023/11/25 09:49:55;;;;;;;6.10;1.90;;;;;;;3.81;62.83;97023.81;105959;1251;72621;-27
2023/11/25 09:52:22;;;;;;;5.60;2.10;;;;;;;3.67;61.74;97019.63;105786;1254;61150;-27
2023/11/25 09:54:58;;;;;;;4.20;2.10;;;;;;;3.56;62.57;97018.70;105804;1260;61090;-26
2023/11/25 09:57:32;;;;;;;5.90;2.40;;;;;;;3.46;62.83;97016.61;105689;1257;72740;-27
2023/11/25 10:00:06;;;;;;;6.90;2.60;;;;;;;3.28;63.08;97010.70;105521;1251;74171;-27
2023/11/25 10:02:34;;;;;;;5.30;2.30;;;;;;;3.14;63.73;97001.27;105611;1252;71209;-27
2023/11/25 10:05:01;;;;;;;4.40;2.00;;;;;;;3.41;63.99;96994.53;105695;1251;61016;-26
2023/11/25 10:07:29;;;;;;;5.30;2.10;;;;;;;3.90;62.16;96988.88;105594;1251;61106;-27
2023/11/25 10:09:56;;;;;;;3.30;2.10;;;;;;;4.29;60.68;96983.05;105726;1251;73624;-27
2023/11/25 10:12:23;;;;;;;6.30;2.20;;;;;;;4.41;59.18;96976.98;105832;1251;74118;-26
2023/11/25 10:14:52;;;;;;;5.40;1.90;;;;;;;4.43;58.40;96970.00;105952;1252;72011;-27
2023/11/25 10:17:21;;;;;;;4.50;2.20;;;;;;;4.50;58.59;96964.93;105594;1254;62585;-27
2023/11/25 10:19:48;;;;;;;3.50;2.00;;;;;;;4.90;58.94;96966.29;105825;1257;61221;-26
2023/11/25 10:22:16;;;;;;;6.20;2.40;;;;;;;5.23;58.13;96965.38;105928;1251;73601;-27
2023/11/25 10:24:49;;;;;;;4.20;2.30;;;;;;;5.50;57.00;96969.20;105868;1258;72955;-27
2023/11/25 10:27:17;;;;;;;7.00;2.90;;;;;;;5.72;55.98;96970.45;105678;1251;72895;-27
2023/11/25 10:29:43;;;;;;;6.20;2.50;;;;;;;5.96;55.15;96973.19;105738;1251;61106;-27
2023/11/25 10:32:10;;;;;;;4.90;2.60;;;;;;;6.16;55.58;96971.69;105912;1257;61140;-27
2023/11/25 10:34:38;;;;;;;4.80;2.40;;;;;;;6.18;55.31;96971.30;105950;1251;73794;-27
2023/11/25 10:37:05;;;;;;;6.10;2.20;;;;;;;6.20;54.80;96969.92;105663;1251;74318;-28
2023/11/25 10:39:33;;;;;;;5.30;2.40;;;;;;;6.26;54.65;96974.52;105876;1251;72459;-26
2023/11/25 10:42:07;;;;;;;3.60;2.00;;;;;;;6.13;53.74;96976.40;105596;1251;61035;-26
2023/11/25 10:44:38;;;;;;;;;;;;;;;5.68;52.83;96975.45;105655;1259;61157;-26
2023/11/25 10:47:05;;;;;;;5.40;2.10;;;;;;;5.63;54.01;96982.46;105731;1258;72573;-28
2023/11/25 10:49:35;;;;;;;2.90;1.70;;;;;;;5.97;53.64;96991.55;105730;1251;74143;-26
2023/11/25 10:52:06;;;;;;;5.70;1.90;;;;;;;6.07;53.35;96988.05;105852;1254;72430;-26
2023/11/25 10:54:34;;;;;;;5.00;2.30;;;;;;;6.01;52.49;96986.00;105657;1251;61096;-26
2023/11/25 10:57:05;;;;;;;6.70;2.20;;;;;;;5.98;53.02;96989.36;105964;1251;61030;-26
2023/11/25 10:59:32;;;;;;;5.60;2.60;;;;;;;5.65;54.08;96985.73;105761;1257;73805;-26
2023/11/25 11:02:02;;;;;;;7.20;2.00;;;;;;;5.66;54.28;96990.39;105845;1251;73217;-26
2023/11/25 11:04:41;;;;;;;4.30;2.10;;;;;;;5.50;53.88;96986.98;105723;1251;71803;-26
2023/11/25 11:07:08;;;;;;;4.10;1.60;;;;;;;5.75;54.06;96990.81;105724;1259;61435;-26
2023/11/25 11:09:35;;;;;;;4.00;1.70;;;;;;;5.72;53.25;96984.10;105652;1257;61159;-26
2023/11/25 11:12:06;;;;;;;4.70;2.00;;;;;;;5.73;53.56;96982.38;105696;1254;74208;-26
2023/11/25 11:14:35;;;;;;;4.50;2.00;;;;;;;5.63;54.45;96989.39;105688;1259;74355;-26
2023/11/25 11:17:18;;;;;;;5.80;2.10;;;;;;;5.31;54.17;96988.67;105729;1258;72538;-26
2023/11/25 11:19:45;;;;;;;3.10;2.00;;;;;;;5.15;56.88;96986.00;105739;1251;61116;-26
2023/11/25 11:22:12;;;;;;;6.50;2.50;;;;;;;5.02;56.72;96981.86;105796;1251;61122;-26
2023/11/25 11:24:58;;;;;;;4.70;2.40;;;;;;;4.80;57.99;96981.81;105758;1259;72424;-26
2023/11/25 11:27:35;;;;;;;4.10;2.20;;;;;;;4.88;58.51;96980.02;105858;1251;73985;-27
2023/11/25 11:30:15;;;;;;;7.40;2.30;;;;;;;4.88;58.87;96981.70;105974;1251;72523;-26
2023/11/25 11:32:42;;;;;;;4.90;1.90;;;;;;;4.91;59.10;96988.38;105697;1254;61085;-26
2023/11/25 11:35:12;;;;;;;6.70;2.50;;;;;;;4.59;58.90;96988.18;105986;1256;61150;-27
2023/11/25 11:37:52;;;;;;;6.00;2.60;;;;;;;4.30;59.16;96987.83;105967;1251;73880;-27
2023/11/25 11:40:22;;;;;;;7.50;2.40;;;;;;;3.98;60.81;97000.55;105712;1259;75021;-27
2023/11/25 11:42:50;;;;;;;3.50;2.30;;;;;;;3.72;61.67;97001.89;105597;1251;72527;-27
2023/11/25 11:45:26;;;;;;;4.40;1.90;;;;;;;3.47;61.93;97003.13;105751;1251;61125;-27
2023/11/25 11:47:58;;;;;;;4.20;2.10;;;;;;;3.19;62.94;97009.13;105561;1252;61176;-27
2023/11/25 11:50:31;;;;;;;7.30;2.40;;;;;;;2.95;64.03;97017.60;105718;1257;72902;-27
2023/11/25 11:53:01;;;;;;;3.80;2.40;;;;;;;2.66;64.86;97021.45;105540;1251;73195;-27
2023/11/25 11:55:31;;;;;;;4.00;1.90;;;;;;;2.49;65.82;97016.61;105894;1251;73813;-27
2023/11/25 11:58:09;;;;;;;2.70;1.90;;;;;;;2.40;66.09;97012.73;105941;1251;61148;-27
2023/11/25 12:00:59;;;;;;;3.40;2.30;;;;;;;2.37;66.23;97011.13;105722;1258;62589;-27
2023/11/25 12:03:27;;;;;;;4.00;2.40;;;;;;;2.27;66.24;97010.35;105823;1254;73884;-27
2023/11/25 12:05:54;;;;;;;3.00;1.30;;;;;;;2.27;66.32;97009.00;105568;1260;75701;-27
2023/11/25 12:08:21;;;;;;;6.10;2.00;;;;;;;2.17;67.22;97012.39;105766;1251;72418;-27
2023/11/25 12:10:49;;;;;;;6.70;1.80;;;;;;;2.26;66.64;97009.06;105703;1251;61073;-27
2023/11/25 12:13:26;;;;;;;3.70;2.10;;;;;;;2.22;67.30;97005.11;105560;1260;61205;-27
2023/11/25 12:15:54;;;;;;;3.70;2.10;;;;;;;2.27;66.95;97003.21;105622;1251;71677;-27
2023/11/25 12:18:21;;;;;;;9.30;3.00;;;;;;;2.16;67.39;97004.41;105645;1254;74319;-27
2023/11/25 12:20:48;;;;;;;11.10;3.20;;;;;;;2.17;67.82;97001.95;105847;1251;72495;-27
2023/11/25 12:23:16;;;;;;;3.00;2.20;;;;;;;2.10;67.81;97000.75;105683;1254;61134;-27
2023/11/25 12:25:44;;;;;;;6.10;2.70;;;;;;;2.02;68.13;97002.98;105978;1255;61134;-27
2023/11/25 12:28:11;;;;;;;5.30;2.60;;;;;;;2.08;67.98;97005.65;105774;1257;72463;-27
2023/11/25 12:30:39;;;;;;;7.50;2.20;;;;;;;2.11;67.36;97012.30;105592;1251;74374;-27
2023/11/25 12:33:07;;;;;;;5.70;2.20;;;;;;;2.06;67.03;97017.02;105618;1257;72438;-27
2023/11/25 12:35:35;;;;;;;5.90;2.20;;;;;;;1.97;67.02;97013.94;105581;1251;61102;-27
2023/11/25 12:38:05;;;;;;;6.60;1.70;;;;;;;1.91;67.59;97008.10;105599;1251;61243;-27
2023/11/25 12:40:44;;;;;;;8.60;2.20;;;;;;;1.87;67.62;97003.55;105684;1254;72434;-27
2023/11/25 12:43:11;;;;;;;3.00;1.40;;;;;;;1.89;68.59;97008.17;105813;1257;74362;-27
2023/11/25 12:45:40;;;;;;;3.70;1.30;;;;;;;2.48;67.82;97010.72;105707;1251;72375;-27
2023/11/25 12:48:11;;;;;;;5.30;1.60;;;;;;;3.24;65.56;97013.34;105576;1254;61248;-27
2023/11/25 12:51:04;;;;;;;4.00;1.60;;;;;;;3.39;64.17;97016.49;105393;1252;61719;-27
2023/11/25 12:53:31;;;;;;;3.70;1.80;;;;;;;3.26;64.45;97015.05;105544;1260;73805;-27
2023/11/25 12:55:59;;;;;;;3.80;2.00;;;;;;;3.07;64.67;97017.25;105661;1256;74886;-27
2023/11/25 12:58:26;;;;;;;8.30;1.60;;;;;;;2.84;65.22;97016.02;105729;1255;72542;-27
2023/11/25 13:00:55;;;;;;;5.70;2.80;;;;;;;2.70;65.56;97020.51;105753;1256;61021;-27